createdAt,value
2023-03-21T00:00:53.711Z,452.00
2023-03-21T00:04:56.524Z,451.00
2023-03-21T00:08:53.669Z,449.00
2023-03-21T00:12:53.653Z,456.00
2023-03-21T00:16:53.821Z,456.00
2023-03-21T00:20:58.623Z,454.00
2023-03-21T00:24:54.523Z,451.00
2023-03-21T00:28:53.485Z,454.00
2023-03-21T00:32:56.817Z,460.00
2023-03-21T00:36:53.415Z,460.00
2023-03-21T00:40:53.429Z,463.00
2023-03-21T00:44:53.354Z,467.00
2023-03-21T00:48:53.318Z,467.00
2023-03-21T00:52:53.255Z,468.00
2023-03-21T00:56:53.246Z,465.00
2023-03-21T01:00:53.228Z,467.00
2023-03-21T01:04:53.119Z,465.00
2023-03-21T01:08:53.714Z,467.00
2023-03-21T01:12:53.078Z,465.00
2023-03-21T01:16:53.211Z,470.00
2023-03-21T01:20:53.308Z,470.00
2023-03-21T01:24:58.599Z,471.00
2023-03-21T01:28:54.449Z,474.00
2023-03-21T01:32:53.455Z,471.00
2023-03-21T01:36:53.502Z,474.00
2023-03-21T01:40:53.655Z,473.00
2023-03-21T01:44:53.853Z,469.00
2023-03-21T01:48:53.850Z,474.00
2023-03-21T01:52:53.770Z,469.00
2023-03-21T01:56:53.720Z,468.00
2023-03-21T02:00:53.839Z,468.00
2023-03-21T02:04:53.692Z,466.00
2023-03-21T02:08:53.611Z,467.00
2023-03-21T02:12:53.605Z,467.00
2023-03-21T02:16:53.617Z,465.00
2023-03-21T02:20:53.504Z,467.00
2023-03-21T02:25:00.408Z,468.00
2023-03-21T02:28:54.543Z,470.00
2023-03-21T02:32:53.549Z,467.00
2023-03-21T02:36:53.771Z,469.00
2023-03-21T02:40:53.667Z,466.00
2023-03-21T02:44:53.658Z,468.00
2023-03-21T02:48:53.632Z,465.00
2023-03-21T02:52:53.594Z,467.00
2023-03-21T02:56:53.545Z,465.00
2023-03-21T03:00:53.544Z,473.00
2023-03-21T03:04:53.469Z,469.00
2023-03-21T03:09:02.283Z,474.00
2023-03-21T03:12:54.421Z,474.00
2023-03-21T03:16:53.394Z,471.00
2023-03-21T03:20:53.332Z,473.00
2023-03-21T03:24:53.293Z,473.00
2023-03-21T03:28:53.244Z,471.00
2023-03-21T03:32:53.194Z,473.00
2023-03-21T03:36:53.246Z,473.00
2023-03-21T03:40:53.153Z,472.00
2023-03-21T03:44:53.146Z,474.00
2023-03-21T03:48:53.179Z,475.00
2023-03-21T03:52:56.568Z,475.00
2023-03-21T03:56:53.176Z,470.00
2023-03-21T04:00:53.091Z,467.00
2023-03-21T04:04:53.089Z,469.00
2023-03-21T04:08:53.801Z,466.00
2023-03-21T04:12:52.997Z,466.00
2023-03-21T04:16:52.956Z,470.00
2023-03-21T04:20:52.899Z,465.00
2023-03-21T04:24:52.878Z,465.00
2023-03-21T04:28:52.848Z,467.00
2023-03-21T04:32:52.828Z,468.00
2023-03-21T04:36:52.743Z,470.00
2023-03-21T04:40:52.729Z,468.00
2023-03-21T04:44:52.750Z,471.00
2023-03-21T04:48:52.805Z,475.00
2023-03-21T04:52:52.900Z,473.00
2023-03-21T04:56:52.984Z,471.00
2023-03-21T05:00:53.281Z,475.00
2023-03-21T05:04:53.157Z,475.00
2023-03-21T05:08:53.262Z,483.00
2023-03-21T05:12:53.350Z,482.00
2023-03-21T05:16:53.823Z,485.00
2023-03-21T05:20:53.619Z,485.00
2023-03-21T05:24:53.759Z,488.00
2023-03-21T05:28:53.933Z,489.00
2023-03-21T05:32:54.088Z,487.00
2023-03-21T05:36:54.213Z,485.00
2023-03-21T05:40:54.332Z,481.00
2023-03-21T05:44:54.411Z,480.00
2023-03-21T05:48:54.537Z,475.00
2023-03-21T05:52:54.701Z,476.00
2023-03-21T05:56:54.771Z,472.00
2023-03-21T06:00:54.886Z,477.00
2023-03-21T06:04:54.908Z,482.00
2023-03-21T06:08:54.933Z,478.00
2023-03-21T06:12:54.960Z,479.00
2023-03-21T06:16:54.987Z,487.00
2023-03-21T06:20:55.027Z,487.00
2023-03-21T06:24:55.055Z,485.00
2023-03-21T06:28:55.032Z,479.00
2023-03-21T06:32:55.027Z,480.00
2023-03-21T06:36:55.058Z,487.00
2023-03-21T06:40:55.327Z,508.00
2023-03-21T06:44:55.819Z,605.00
2023-03-21T06:48:55.823Z,654.00
2023-03-21T06:52:55.678Z,673.00
2023-03-21T06:56:55.835Z,707.00
2023-03-21T07:00:55.889Z,694.00
2023-03-21T07:04:55.944Z,672.00
2023-03-21T07:08:56.355Z,656.00
2023-03-21T07:12:56.235Z,637.00
2023-03-21T07:16:56.817Z,619.00
2023-03-21T07:20:56.524Z,608.00
2023-03-21T07:25:04.754Z,593.00
2023-03-21T07:28:57.671Z,577.00
2023-03-21T07:32:56.624Z,570.00
2023-03-21T07:36:56.621Z,562.00
2023-03-21T07:40:56.731Z,553.00
2023-03-21T07:44:56.884Z,551.00
2023-03-21T07:48:57.341Z,549.00
2023-03-21T07:52:57.351Z,721.00
2023-03-21T07:56:57.356Z,788.00
2023-03-21T08:00:57.470Z,851.00
2023-03-21T08:04:57.513Z,885.00
2023-03-21T08:08:57.573Z,944.00
2023-03-21T08:12:57.574Z,986.00
2023-03-21T08:16:57.877Z,1012.00
2023-03-21T08:20:57.672Z,1061.00
2023-03-21T08:24:57.649Z,1100.00
2023-03-21T08:28:57.616Z,1121.00
2023-03-21T08:33:00.176Z,1153.00
2023-03-21T08:36:57.519Z,1159.00
2023-03-21T08:40:59.814Z,1181.00
2023-03-21T08:44:57.899Z,1202.00
2023-03-21T08:48:57.887Z,1083.00
2023-03-21T08:52:57.384Z,1165.00
2023-03-21T08:56:57.332Z,1175.00
2023-03-21T09:00:57.370Z,1161.00
2023-03-21T09:04:57.326Z,1072.00
2023-03-21T09:08:57.365Z,1072.00
2023-03-21T09:12:57.297Z,1043.00
2023-03-21T09:16:57.158Z,1055.00
2023-03-21T09:20:57.120Z,1057.00
2023-03-21T09:24:57.128Z,1042.00
2023-03-21T09:28:57.378Z,1024.00
2023-03-21T09:32:57.447Z,1011.00
2023-03-21T09:36:58.433Z,986.00
2023-03-21T09:40:57.906Z,946.00
2023-03-21T09:44:58.400Z,842.00
2023-03-21T09:48:58.003Z,848.00
2023-03-21T09:52:57.893Z,986.00
2023-03-21T09:56:57.918Z,934.00
2023-03-21T10:00:57.789Z,828.00
2023-03-21T10:04:57.739Z,753.00
2023-03-21T10:08:57.704Z,719.00
2023-03-21T10:12:57.686Z,693.00
2023-03-21T10:16:57.917Z,664.00
2023-03-21T10:20:57.607Z,638.00
2023-03-21T10:24:57.546Z,618.00
2023-03-21T10:28:57.956Z,599.00
2023-03-21T10:32:59.575Z,576.00
2023-03-21T10:36:58.737Z,566.00
2023-03-21T10:40:57.427Z,560.00
2023-03-21T10:44:57.907Z,573.00
2023-03-21T10:48:57.959Z,753.00
2023-03-21T10:52:57.567Z,866.00
2023-03-21T10:56:57.496Z,945.00
2023-03-21T11:00:57.504Z,1009.00
2023-03-21T11:04:57.437Z,999.00
2023-03-21T11:08:57.432Z,1065.00
2023-03-21T11:12:57.348Z,1084.00
2023-03-21T11:16:57.374Z,1111.00
2023-03-21T11:20:57.278Z,1120.00
2023-03-21T11:24:57.241Z,1148.00
2023-03-21T11:28:57.214Z,1131.00
2023-03-21T11:32:57.181Z,1096.00
2023-03-21T11:36:57.434Z,1102.00
2023-03-21T11:40:57.426Z,1104.00
2023-03-21T11:44:57.072Z,1062.00
2023-03-21T11:48:57.041Z,1125.00
2023-03-21T11:52:57.042Z,1121.00
2023-03-21T11:56:56.980Z,1121.00
2023-03-21T12:00:57.099Z,1116.00
2023-03-21T12:04:57.466Z,1137.00
2023-03-21T12:08:57.024Z,1129.00
2023-03-21T12:12:57.005Z,1139.00
2023-03-21T12:16:56.959Z,1127.00
2023-03-21T12:20:56.929Z,1127.00
2023-03-21T12:24:56.889Z,1108.00
2023-03-21T12:28:56.829Z,1110.00
2023-03-21T12:32:56.942Z,1105.00
2023-03-21T12:36:56.944Z,1085.00
2023-03-21T12:40:56.866Z,990.00
2023-03-21T12:44:56.747Z,952.00
2023-03-21T12:48:56.976Z,885.00
2023-03-21T12:52:56.656Z,827.00
2023-03-21T12:56:56.645Z,756.00
2023-03-21T13:00:56.635Z,693.00
2023-03-21T13:04:56.568Z,665.00
2023-03-21T13:08:56.515Z,643.00
2023-03-21T13:12:56.602Z,628.00
2023-03-21T13:16:56.430Z,610.00
2023-03-21T13:20:56.400Z,597.00
2023-03-21T13:24:56.466Z,584.00
2023-03-21T13:28:56.415Z,578.00
2023-03-21T13:32:56.326Z,567.00
2023-03-21T13:36:56.371Z,568.00
2023-03-21T13:40:56.555Z,556.00
2023-03-21T13:44:57.040Z,537.00
2023-03-21T13:48:59.118Z,520.00
2023-03-21T13:52:57.154Z,514.00
2023-03-21T13:56:58.758Z,501.00
2023-03-21T14:00:57.486Z,490.00
2023-03-21T14:05:05.278Z,490.00
2023-03-21T14:08:58.307Z,478.00
2023-03-21T14:12:57.271Z,478.00
2023-03-21T14:16:57.415Z,471.00
2023-03-21T14:20:57.487Z,466.00
2023-03-21T14:24:57.253Z,467.00
2023-03-21T14:28:57.492Z,466.00
2023-03-21T14:32:57.276Z,466.00
2023-03-21T14:36:58.793Z,469.00
2023-03-21T14:40:57.160Z,467.00
2023-03-21T14:44:57.186Z,464.00
2023-03-21T14:48:57.235Z,459.00
2023-03-21T14:52:57.102Z,458.00
2023-03-21T14:56:57.056Z,456.00
2023-03-21T15:00:57.030Z,453.00
2023-03-21T15:04:57.197Z,454.00
2023-03-21T15:08:57.016Z,457.00
2023-03-21T15:12:57.020Z,462.00
2023-03-21T15:16:56.902Z,463.00
2023-03-21T15:20:56.945Z,464.00
2023-03-21T15:24:57.013Z,457.00
2023-03-21T15:28:56.883Z,457.00
2023-03-21T15:32:56.819Z,455.00
2023-03-21T15:36:56.887Z,454.00
2023-03-21T15:40:56.756Z,450.00
2023-03-21T15:44:56.692Z,447.00
2023-03-21T15:48:56.665Z,455.00
2023-03-21T15:52:56.736Z,453.00
2023-03-21T15:56:56.632Z,454.00
2023-03-21T16:00:56.622Z,453.00
2023-03-21T16:04:56.577Z,448.00
2023-03-21T16:08:56.845Z,450.00
2023-03-21T16:12:56.716Z,448.00
2023-03-21T16:16:56.678Z,453.00
2023-03-21T16:20:56.624Z,453.00
2023-03-21T16:24:56.637Z,452.00
2023-03-21T16:28:56.539Z,452.00
2023-03-21T16:32:56.544Z,449.00
2023-03-21T16:36:56.520Z,448.00
2023-03-21T16:40:56.473Z,453.00
2023-03-21T16:44:56.435Z,452.00
2023-03-21T16:48:56.413Z,453.00
2023-03-21T16:52:56.551Z,450.00
2023-03-21T16:56:56.807Z,454.00
2023-03-21T17:00:57.033Z,455.00
2023-03-21T17:04:57.035Z,451.00
2023-03-21T17:08:57.134Z,445.00
2023-03-21T17:12:57.287Z,447.00
2023-03-21T17:16:57.420Z,452.00
2023-03-21T17:20:57.534Z,451.00
2023-03-21T17:24:57.705Z,449.00
2023-03-21T17:28:57.832Z,448.00
2023-03-21T17:32:58.038Z,445.00
2023-03-21T17:36:58.124Z,446.00
2023-03-21T17:40:58.093Z,443.00
2023-03-21T17:44:58.107Z,441.00
2023-03-21T17:48:58.108Z,441.00
2023-03-21T17:52:58.109Z,440.00
2023-03-21T17:56:58.062Z,442.00
2023-03-21T18:00:58.051Z,444.00
2023-03-21T18:04:58.099Z,446.00
2023-03-21T18:08:59.648Z,445.00
2023-03-21T18:12:58.224Z,445.00
2023-03-21T18:16:58.384Z,443.00
2023-03-21T18:20:59.025Z,451.00
2023-03-21T18:24:58.522Z,447.00
2023-03-21T18:29:47.480Z,446.00
2023-03-21T18:32:59.601Z,452.00
2023-03-21T18:36:58.539Z,453.00
2023-03-21T18:40:58.534Z,458.00
2023-03-21T18:44:58.493Z,453.00
2023-03-21T18:48:58.530Z,455.00
2023-03-21T18:52:58.612Z,457.00
2023-03-21T18:57:35.234Z,457.00
2023-03-21T19:00:59.832Z,458.00
2023-03-21T19:04:58.680Z,455.00
2023-03-21T19:08:59.357Z,458.00
2023-03-21T19:12:58.738Z,457.00
2023-03-21T19:20:59.848Z,462.00
2023-03-21T19:24:58.819Z,456.00
2023-03-21T19:28:58.830Z,447.00
2023-03-21T19:32:59.039Z,451.00
2023-03-21T19:36:59.326Z,456.00
2023-03-21T19:40:59.439Z,456.00
2023-03-21T19:44:59.762Z,457.00
2023-03-21T19:48:59.654Z,461.00
2023-03-21T19:52:59.607Z,464.00
2023-03-21T19:56:59.803Z,462.00
2023-03-21T20:00:59.686Z,462.00
2023-03-21T20:04:59.510Z,461.00
2023-03-21T20:13:00.429Z,462.00
2023-03-21T20:16:59.424Z,461.00
2023-03-21T20:21:01.927Z,460.00
2023-03-21T20:24:59.337Z,462.00
2023-03-21T20:29:27.982Z,460.00
2023-03-21T20:33:00.236Z,458.00
2023-03-21T20:36:59.334Z,457.00
2023-03-21T20:40:59.238Z,459.00
2023-03-21T20:45:00.843Z,458.00
2023-03-21T20:48:59.467Z,461.00
2023-03-21T20:53:07.056Z,461.00
2023-03-21T20:57:00.309Z,462.00
2023-03-21T21:01:06.127Z,464.00
2023-03-21T21:05:24.733Z,464.00
2023-03-21T21:09:00.223Z,463.00
2023-03-21T21:12:59.177Z,467.00
2023-03-21T21:17:02.690Z,471.00
2023-03-21T21:21:00.147Z,468.00
2023-03-21T21:24:59.089Z,469.00
2023-03-21T21:28:59.027Z,471.00
2023-03-21T21:32:59.010Z,467.00
2023-03-21T21:36:58.957Z,466.00
2023-03-21T21:40:58.930Z,470.00
2023-03-21T21:44:58.898Z,473.00
2023-03-21T21:48:58.920Z,474.00
2023-03-21T21:52:58.867Z,474.00
2023-03-21T21:56:58.856Z,471.00
2023-03-21T22:00:58.918Z,474.00
2023-03-21T22:04:58.842Z,474.00
2023-03-21T22:08:58.878Z,471.00
2023-03-21T22:12:58.911Z,470.00
2023-03-21T22:16:58.923Z,466.00
2023-03-21T22:20:58.913Z,467.00
2023-03-21T22:24:59.027Z,471.00
2023-03-21T22:28:59.042Z,471.00
2023-03-21T22:33:08.914Z,473.00
2023-03-21T22:37:00.131Z,474.00
2023-03-21T22:40:59.024Z,474.00
2023-03-21T22:44:58.988Z,475.00
2023-03-21T22:48:58.945Z,475.00
2023-03-21T22:52:58.902Z,480.00
2023-03-21T22:56:58.997Z,475.00
2023-03-21T23:00:59.091Z,476.00
2023-03-21T23:04:59.188Z,469.00
2023-03-21T23:08:59.319Z,469.00
2023-03-21T23:12:59.438Z,464.00
2023-03-21T23:16:59.570Z,460.00
2023-03-21T23:20:59.714Z,460.00
2023-03-21T23:24:59.828Z,461.00
2023-03-21T23:28:59.960Z,455.00
2023-03-21T23:33:00.148Z,461.00
2023-03-21T23:37:00.340Z,465.00
2023-03-21T23:41:01.017Z,468.00
2023-03-21T23:45:00.688Z,468.00
2023-03-21T23:49:00.879Z,471.00
2023-03-21T23:53:01.043Z,476.00
2023-03-21T23:57:01.275Z,474.00
